sensor_id;sensor_type;location;lat;lon;timestamp;temperature;humidity
3699;DHT22;1865;50.918;7.092;2022-12-29T00:00:54;15.20;54.80
3699;DHT22;1865;50.918;7.092;2022-12-29T00:03:19;15.20;54.60
3699;DHT22;1865;50.918;7.092;2022-12-29T00:05:45;15.20;55.00
3699;DHT22;1865;50.918;7.092;2022-12-29T00:08:10;15.20;54.90
3699;DHT22;1865;50.918;7.092;2022-12-29T00:10:36;15.30;55.10
3699;DHT22;1865;50.918;7.092;2022-12-29T00:13:01;15.40;55.10
3699;DHT22;1865;50.918;7.092;2022-12-29T00:15:53;15.30;55.50
3699;DHT22;1865;50.918;7.092;2022-12-29T00:18:18;15.40;55.70
3699;DHT22;1865;50.918;7.092;2022-12-29T00:20:44;15.40;55.40
3699;DHT22;1865;50.918;7.092;2022-12-29T00:23:28;15.30;55.60
3699;DHT22;1865;50.918;7.092;2022-12-29T00:26:16;15.20;55.70
3699;DHT22;1865;50.918;7.092;2022-12-29T00:29:00;15.30;55.90
3699;DHT22;1865;50.918;7.092;2022-12-29T00:31:44;15.20;55.60
3699;DHT22;1865;50.918;7.092;2022-12-29T00:34:28;15.30;55.60
3699;DHT22;1865;50.918;7.092;2022-12-29T00:37:12;15.40;55.10
3699;DHT22;1865;50.918;7.092;2022-12-29T00:39:37;15.40;55.10
3699;DHT22;1865;50.918;7.092;2022-12-29T00:42:22;15.40;55.00
3699;DHT22;1865;50.918;7.092;2022-12-29T00:45:06;15.30;55.00
3699;DHT22;1865;50.918;7.092;2022-12-29T00:47:31;15.30;55.20
3699;DHT22;1865;50.918;7.092;2022-12-29T00:49:57;15.40;54.80
3699;DHT22;1865;50.918;7.092;2022-12-29T00:52:22;15.40;54.50
3699;DHT22;1865;50.918;7.092;2022-12-29T00:54:48;15.50;54.20
3699;DHT22;1865;50.918;7.092;2022-12-29T00:57:13;15.60;53.70
3699;DHT22;1865;50.918;7.092;2022-12-29T00:59:40;15.60;53.80
3699;DHT22;1865;50.918;7.092;2022-12-29T01:02:06;15.60;53.80
3699;DHT22;1865;50.918;7.092;2022-12-29T01:04:33;15.70;53.50
3699;DHT22;1865;50.918;7.092;2022-12-29T01:06:58;15.80;52.80
3699;DHT22;1865;50.918;7.092;2022-12-29T01:09:24;15.70;53.30
3699;DHT22;1865;50.918;7.092;2022-12-29T01:12:09;15.70;53.90
3699;DHT22;1865;50.918;7.092;2022-12-29T01:14:35;15.60;54.50
3699;DHT22;1865;50.918;7.092;2022-12-29T01:17:01;15.60;55.20
3699;DHT22;1865;50.918;7.092;2022-12-29T01:19:26;15.50;55.20
3699;DHT22;1865;50.918;7.092;2022-12-29T01:21:52;15.60;55.40
3699;DHT22;1865;50.918;7.092;2022-12-29T01:24:19;15.60;55.30
3699;DHT22;1865;50.918;7.092;2022-12-29T01:26:45;15.60;54.90
3699;DHT22;1865;50.918;7.092;2022-12-29T01:29:11;15.50;55.20
3699;DHT22;1865;50.918;7.092;2022-12-29T01:31:37;15.60;54.90
3699;DHT22;1865;50.918;7.092;2022-12-29T01:34:03;15.70;54.30
3699;DHT22;1865;50.918;7.092;2022-12-29T01:36:29;15.60;53.90
3699;DHT22;1865;50.918;7.092;2022-12-29T01:38:55;15.70;54.10
3699;DHT22;1865;50.918;7.092;2022-12-29T01:41:22;15.80;53.50
3699;DHT22;1865;50.918;7.092;2022-12-29T01:43:56;15.80;53.40
3699;DHT22;1865;50.918;7.092;2022-12-29T01:46:41;15.80;52.80
3699;DHT22;1865;50.918;7.092;2022-12-29T01:49:13;15.80;52.70
3699;DHT22;1865;50.918;7.092;2022-12-29T01:51:52;15.90;52.60
3699;DHT22;1865;50.918;7.092;2022-12-29T01:54:30;15.80;51.90
3699;DHT22;1865;50.918;7.092;2022-12-29T01:56:59;15.90;51.50
3699;DHT22;1865;50.918;7.092;2022-12-29T01:59:29;15.90;50.50
3699;DHT22;1865;50.918;7.092;2022-12-29T02:01:56;16.00;49.60
3699;DHT22;1865;50.918;7.092;2022-12-29T02:04:24;16.00;48.80
3699;DHT22;1865;50.918;7.092;2022-12-29T02:06:54;16.10;48.40
3699;DHT22;1865;50.918;7.092;2022-12-29T02:09:20;16.10;47.80
3699;DHT22;1865;50.918;7.092;2022-12-29T02:11:46;16.20;47.60
3699;DHT22;1865;50.918;7.092;2022-12-29T02:14:13;16.30;47.30
3699;DHT22;1865;50.918;7.092;2022-12-29T02:25:41;16.40;46.40
3699;DHT22;1865;50.918;7.092;2022-12-29T02:40:29;16.50;46.10
3699;DHT22;1865;50.918;7.092;2022-12-29T02:43:16;16.50;46.30
3699;DHT22;1865;50.918;7.092;2022-12-29T02:45:56;16.50;46.30
3699;DHT22;1865;50.918;7.092;2022-12-29T02:48:46;16.50;46.00
3699;DHT22;1865;50.918;7.092;2022-12-29T02:51:25;16.40;45.70
3699;DHT22;1865;50.918;7.092;2022-12-29T02:53:53;16.50;46.20
3699;DHT22;1865;50.918;7.092;2022-12-29T02:56:37;16.40;46.30
3699;DHT22;1865;50.918;7.092;2022-12-29T02:59:03;16.30;46.80
3699;DHT22;1865;50.918;7.092;2022-12-29T03:01:50;16.30;47.10
3699;DHT22;1865;50.918;7.092;2022-12-29T03:05:04;16.30;47.30
3699;DHT22;1865;50.918;7.092;2022-12-29T03:07:42;16.30;47.60
3699;DHT22;1865;50.918;7.092;2022-12-29T03:10:55;16.30;48.10
3699;DHT22;1865;50.918;7.092;2022-12-29T03:13:24;16.20;48.40
3699;DHT22;1865;50.918;7.092;2022-12-29T03:16:43;16.30;48.50
3699;DHT22;1865;50.918;7.092;2022-12-29T03:19:36;16.20;48.90
3699;DHT22;1865;50.918;7.092;2022-12-29T03:22:06;16.20;49.20
3699;DHT22;1865;50.918;7.092;2022-12-29T03:27:33;16.40;48.70
3699;DHT22;1865;50.918;7.092;2022-12-29T03:30:03;16.40;48.80
3699;DHT22;1865;50.918;7.092;2022-12-29T03:32:40;16.40;49.00
3699;DHT22;1865;50.918;7.092;2022-12-29T03:35:08;16.40;48.80
3699;DHT22;1865;50.918;7.092;2022-12-29T03:37:39;16.20;49.40
3699;DHT22;1865;50.918;7.092;2022-12-29T03:40:06;16.20;49.70
3699;DHT22;1865;50.918;7.092;2022-12-29T03:42:34;16.20;49.80
3699;DHT22;1865;50.918;7.092;2022-12-29T03:45:00;16.30;49.80
3699;DHT22;1865;50.918;7.092;2022-12-29T03:47:26;16.30;49.70
3699;DHT22;1865;50.918;7.092;2022-12-29T03:49:52;16.20;49.60
3699;DHT22;1865;50.918;7.092;2022-12-29T03:52:18;16.30;50.00
3699;DHT22;1865;50.918;7.092;2022-12-29T03:54:44;16.30;49.90
3699;DHT22;1865;50.918;7.092;2022-12-29T03:57:10;16.30;49.90
3699;DHT22;1865;50.918;7.092;2022-12-29T03:59:36;16.30;50.10
3699;DHT22;1865;50.918;7.092;2022-12-29T04:02:02;16.40;49.80
3699;DHT22;1865;50.918;7.092;2022-12-29T04:04:27;16.40;49.70
3699;DHT22;1865;50.918;7.092;2022-12-29T04:06:53;16.40;49.80
3699;DHT22;1865;50.918;7.092;2022-12-29T04:09:18;16.40;49.70
3699;DHT22;1865;50.918;7.092;2022-12-29T04:11:44;16.30;49.80
3699;DHT22;1865;50.918;7.092;2022-12-29T04:14:09;16.30;49.90
3699;DHT22;1865;50.918;7.092;2022-12-29T04:16:35;16.30;49.80
3699;DHT22;1865;50.918;7.092;2022-12-29T04:19:01;16.30;49.70
3699;DHT22;1865;50.918;7.092;2022-12-29T04:21:27;16.20;49.70
3699;DHT22;1865;50.918;7.092;2022-12-29T04:23:53;16.10;50.20
3699;DHT22;1865;50.918;7.092;2022-12-29T04:26:18;16.20;49.90
3699;DHT22;1865;50.918;7.092;2022-12-29T04:28:44;16.20;49.60
3699;DHT22;1865;50.918;7.092;2022-12-29T04:31:09;16.20;49.60
3699;DHT22;1865;50.918;7.092;2022-12-29T04:33:35;16.20;49.60
3699;DHT22;1865;50.918;7.092;2022-12-29T04:36:00;16.00;49.90
3699;DHT22;1865;50.918;7.092;2022-12-29T04:38:26;16.00;49.70
3699;DHT22;1865;50.918;7.092;2022-12-29T04:40:52;16.00;49.60
3699;DHT22;1865;50.918;7.092;2022-12-29T04:43:17;16.10;49.60
3699;DHT22;1865;50.918;7.092;2022-12-29T04:45:47;16.20;49.10
3699;DHT22;1865;50.918;7.092;2022-12-29T04:48:13;16.20;49.00
3699;DHT22;1865;50.918;7.092;2022-12-29T04:50:40;16.10;48.90
3699;DHT22;1865;50.918;7.092;2022-12-29T04:53:05;16.20;48.90
3699;DHT22;1865;50.918;7.092;2022-12-29T04:55:31;16.10;49.10
3699;DHT22;1865;50.918;7.092;2022-12-29T04:57:57;16.20;48.70
3699;DHT22;1865;50.918;7.092;2022-12-29T05:00:22;16.20;48.30
3699;DHT22;1865;50.918;7.092;2022-12-29T05:02:48;16.20;48.50
3699;DHT22;1865;50.918;7.092;2022-12-29T05:05:13;16.20;48.40
3699;DHT22;1865;50.918;7.092;2022-12-29T05:07:39;16.20;48.20
3699;DHT22;1865;50.918;7.092;2022-12-29T05:10:06;16.30;48.10
3699;DHT22;1865;50.918;7.092;2022-12-29T05:12:33;16.30;47.10
3699;DHT22;1865;50.918;7.092;2022-12-29T05:14:59;16.30;47.10
3699;DHT22;1865;50.918;7.092;2022-12-29T05:17:25;16.30;46.70
3699;DHT22;1865;50.918;7.092;2022-12-29T05:19:50;16.10;46.50
3699;DHT22;1865;50.918;7.092;2022-12-29T05:22:16;16.10;46.90
3699;DHT22;1865;50.918;7.092;2022-12-29T05:24:41;16.20;46.40
3699;DHT22;1865;50.918;7.092;2022-12-29T05:27:07;16.20;46.00
3699;DHT22;1865;50.918;7.092;2022-12-29T05:29:32;16.20;45.60
3699;DHT22;1865;50.918;7.092;2022-12-29T05:31:58;16.30;46.10
3699;DHT22;1865;50.918;7.092;2022-12-29T05:34:24;16.30;46.00
3699;DHT22;1865;50.918;7.092;2022-12-29T05:36:49;16.40;45.80
3699;DHT22;1865;50.918;7.092;2022-12-29T05:39:15;16.50;46.10
3699;DHT22;1865;50.918;7.092;2022-12-29T05:41:40;16.50;45.20
3699;DHT22;1865;50.918;7.092;2022-12-29T05:44:06;16.50;45.40
3699;DHT22;1865;50.918;7.092;2022-12-29T05:46:31;16.50;45.10
3699;DHT22;1865;50.918;7.092;2022-12-29T05:48:57;16.40;45.20
3699;DHT22;1865;50.918;7.092;2022-12-29T05:51:23;16.40;45.50
3699;DHT22;1865;50.918;7.092;2022-12-29T05:53:48;16.50;45.80
3699;DHT22;1865;50.918;7.092;2022-12-29T05:56:14;16.40;45.80
3699;DHT22;1865;50.918;7.092;2022-12-29T05:58:39;16.50;45.80
3699;DHT22;1865;50.918;7.092;2022-12-29T06:01:05;16.50;46.20
3699;DHT22;1865;50.918;7.092;2022-12-29T06:03:30;16.50;46.50
3699;DHT22;1865;50.918;7.092;2022-12-29T06:05:56;16.40;46.80
3699;DHT22;1865;50.918;7.092;2022-12-29T06:08:21;16.50;47.00
3699;DHT22;1865;50.918;7.092;2022-12-29T06:10:47;16.50;47.20
3699;DHT22;1865;50.918;7.092;2022-12-29T06:13:13;16.50;46.90
3699;DHT22;1865;50.918;7.092;2022-12-29T06:15:38;16.30;47.00
3699;DHT22;1865;50.918;7.092;2022-12-29T06:18:04;16.40;47.30
3699;DHT22;1865;50.918;7.092;2022-12-29T06:20:29;16.30;46.40
3699;DHT22;1865;50.918;7.092;2022-12-29T06:22:55;16.40;46.20
3699;DHT22;1865;50.918;7.092;2022-12-29T06:25:20;16.40;46.30
3699;DHT22;1865;50.918;7.092;2022-12-29T06:27:46;16.40;46.70
3699;DHT22;1865;50.918;7.092;2022-12-29T06:30:12;16.40;47.10
3699;DHT22;1865;50.918;7.092;2022-12-29T06:32:38;16.40;47.80
3699;DHT22;1865;50.918;7.092;2022-12-29T06:35:04;16.20;48.40
3699;DHT22;1865;50.918;7.092;2022-12-29T06:37:31;16.30;48.80
3699;DHT22;1865;50.918;7.092;2022-12-29T06:39:57;16.10;49.30
3699;DHT22;1865;50.918;7.092;2022-12-29T06:42:22;16.20;49.40
3699;DHT22;1865;50.918;7.092;2022-12-29T06:44:48;16.20;49.70
3699;DHT22;1865;50.918;7.092;2022-12-29T06:47:13;16.20;49.30
3699;DHT22;1865;50.918;7.092;2022-12-29T06:49:39;16.30;48.90
3699;DHT22;1865;50.918;7.092;2022-12-29T06:52:04;16.20;48.80
3699;DHT22;1865;50.918;7.092;2022-12-29T06:54:30;16.20;48.30
3699;DHT22;1865;50.918;7.092;2022-12-29T06:56:56;16.20;48.10
3699;DHT22;1865;50.918;7.092;2022-12-29T06:59:22;16.10;48.20
3699;DHT22;1865;50.918;7.092;2022-12-29T07:01:47;16.10;47.90
3699;DHT22;1865;50.918;7.092;2022-12-29T07:04:13;16.20;47.00
3699;DHT22;1865;50.918;7.092;2022-12-29T07:06:38;16.10;46.80
3699;DHT22;1865;50.918;7.092;2022-12-29T07:09:06;16.20;45.70
3699;DHT22;1865;50.918;7.092;2022-12-29T07:11:32;16.30;45.00
3699;DHT22;1865;50.918;7.092;2022-12-29T07:13:57;16.20;45.20
3699;DHT22;1865;50.918;7.092;2022-12-29T07:16:23;16.20;45.10
3699;DHT22;1865;50.918;7.092;2022-12-29T07:18:48;16.10;45.50
3699;DHT22;1865;50.918;7.092;2022-12-29T07:21:14;16.10;45.60
3699;DHT22;1865;50.918;7.092;2022-12-29T07:23:39;16.10;45.80
3699;DHT22;1865;50.918;7.092;2022-12-29T07:26:07;16.10;44.90
3699;DHT22;1865;50.918;7.092;2022-12-29T07:28:34;16.00;45.40
3699;DHT22;1865;50.918;7.092;2022-12-29T07:31:00;16.10;45.10
3699;DHT22;1865;50.918;7.092;2022-12-29T07:33:27;16.10;44.40
3699;DHT22;1865;50.918;7.092;2022-12-29T07:35:53;16.10;44.60
3699;DHT22;1865;50.918;7.092;2022-12-29T07:38:18;16.20;44.40
3699;DHT22;1865;50.918;7.092;2022-12-29T07:40:44;16.30;44.00
3699;DHT22;1865;50.918;7.092;2022-12-29T07:43:09;16.20;43.60
3699;DHT22;1865;50.918;7.092;2022-12-29T07:45:35;16.20;43.60
3699;DHT22;1865;50.918;7.092;2022-12-29T07:48:00;16.20;43.50
3699;DHT22;1865;50.918;7.092;2022-12-29T07:50:27;16.20;43.60
3699;DHT22;1865;50.918;7.092;2022-12-29T07:52:53;16.20;43.20
3699;DHT22;1865;50.918;7.092;2022-12-29T07:55:18;16.20;43.30
3699;DHT22;1865;50.918;7.092;2022-12-29T07:57:44;16.20;43.60
3699;DHT22;1865;50.918;7.092;2022-12-29T08:00:10;16.20;43.40
3699;DHT22;1865;50.918;7.092;2022-12-29T08:02:36;16.20;43.50
3699;DHT22;1865;50.918;7.092;2022-12-29T08:05:01;16.10;43.70
3699;DHT22;1865;50.918;7.092;2022-12-29T08:07:27;16.20;43.90
3699;DHT22;1865;50.918;7.092;2022-12-29T08:09:52;16.10;44.00
3699;DHT22;1865;50.918;7.092;2022-12-29T08:12:18;16.00;44.30
3699;DHT22;1865;50.918;7.092;2022-12-29T08:14:44;16.10;44.30
3699;DHT22;1865;50.918;7.092;2022-12-29T08:17:09;16.10;44.00
3699;DHT22;1865;50.918;7.092;2022-12-29T08:19:35;16.20;43.90
3699;DHT22;1865;50.918;7.092;2022-12-29T08:22:01;16.20;44.10
3699;DHT22;1865;50.918;7.092;2022-12-29T08:24:26;16.10;44.30
3699;DHT22;1865;50.918;7.092;2022-12-29T08:26:52;16.10;44.20
3699;DHT22;1865;50.918;7.092;2022-12-29T08:29:17;16.10;44.00
3699;DHT22;1865;50.918;7.092;2022-12-29T08:31:43;16.00;44.50
3699;DHT22;1865;50.918;7.092;2022-12-29T08:34:09;16.10;44.20
3699;DHT22;1865;50.918;7.092;2022-12-29T08:36:34;16.10;43.90
3699;DHT22;1865;50.918;7.092;2022-12-29T08:39:00;16.20;44.00
3699;DHT22;1865;50.918;7.092;2022-12-29T08:41:25;16.00;43.20
3699;DHT22;1865;50.918;7.092;2022-12-29T08:43:51;16.00;44.10
3699;DHT22;1865;50.918;7.092;2022-12-29T08:46:17;16.10;44.10
3699;DHT22;1865;50.918;7.092;2022-12-29T08:48:43;16.20;44.10
3699;DHT22;1865;50.918;7.092;2022-12-29T08:51:09;16.20;43.90
3699;DHT22;1865;50.918;7.092;2022-12-29T08:53:35;16.00;44.10
3699;DHT22;1865;50.918;7.092;2022-12-29T08:56:01;16.00;44.30
3699;DHT22;1865;50.918;7.092;2022-12-29T08:58:27;15.90;44.60
3699;DHT22;1865;50.918;7.092;2022-12-29T09:00:54;15.90;45.00
3699;DHT22;1865;50.918;7.092;2022-12-29T09:03:20;15.90;44.80
3699;DHT22;1865;50.918;7.092;2022-12-29T09:05:53;15.70;45.20
3699;DHT22;1865;50.918;7.092;2022-12-29T09:08:19;15.80;45.00
3699;DHT22;1865;50.918;7.092;2022-12-29T09:10:45;15.80;45.00
3699;DHT22;1865;50.918;7.092;2022-12-29T09:13:12;15.80;44.90
3699;DHT22;1865;50.918;7.092;2022-12-29T09:15:38;15.90;44.60
3699;DHT22;1865;50.918;7.092;2022-12-29T09:18:04;15.80;44.80
3699;DHT22;1865;50.918;7.092;2022-12-29T09:20:29;15.90;44.50
3699;DHT22;1865;50.918;7.092;2022-12-29T09:22:55;15.90;44.30
3699;DHT22;1865;50.918;7.092;2022-12-29T09:25:20;16.00;44.50
3699;DHT22;1865;50.918;7.092;2022-12-29T09:27:48;16.00;44.10
3699;DHT22;1865;50.918;7.092;2022-12-29T09:30:14;15.90;44.40
3699;DHT22;1865;50.918;7.092;2022-12-29T09:32:40;15.80;43.90
3699;DHT22;1865;50.918;7.092;2022-12-29T09:35:06;15.70;43.80
3699;DHT22;1865;50.918;7.092;2022-12-29T09:37:31;15.90;42.90
3699;DHT22;1865;50.918;7.092;2022-12-29T09:39:57;16.00;42.30
3699;DHT22;1865;50.918;7.092;2022-12-29T09:43:43;15.90;41.80
3699;DHT22;1865;50.918;7.092;2022-12-29T09:48:32;16.20;39.90
3699;DHT22;1865;50.918;7.092;2022-12-29T09:51:02;16.10;40.60
3699;DHT22;1865;50.918;7.092;2022-12-29T09:56:00;16.50;39.40
3699;DHT22;1865;50.918;7.092;2022-12-29T09:58:36;16.40;39.50
3699;DHT22;1865;50.918;7.092;2022-12-29T10:01:12;16.40;39.60
3699;DHT22;1865;50.918;7.092;2022-12-29T10:03:51;16.60;39.30
3699;DHT22;1865;50.918;7.092;2022-12-29T10:06:55;16.50;38.20
3699;DHT22;1865;50.918;7.092;2022-12-29T10:18:14;17.60;37.00
3699;DHT22;1865;50.918;7.092;2022-12-29T10:21:05;17.30;35.00
3699;DHT22;1865;50.918;7.092;2022-12-29T10:23:45;16.70;36.50
3699;DHT22;1865;50.918;7.092;2022-12-29T10:26:18;16.80;37.30
3699;DHT22;1865;50.918;7.092;2022-12-29T10:28:56;17.20;36.70
3699;DHT22;1865;50.918;7.092;2022-12-29T10:31:28;17.60;35.20
3699;DHT22;1865;50.918;7.092;2022-12-29T10:33:59;17.80;34.60
3699;DHT22;1865;50.918;7.092;2022-12-29T10:36:38;17.50;35.20
3699;DHT22;1865;50.918;7.092;2022-12-29T10:41:49;17.60;35.50
3699;DHT22;1865;50.918;7.092;2022-12-29T10:44:17;17.50;34.80
3699;DHT22;1865;50.918;7.092;2022-12-29T10:46:44;17.20;35.40
3699;DHT22;1865;50.918;7.092;2022-12-29T10:49:16;17.10;36.00
3699;DHT22;1865;50.918;7.092;2022-12-29T10:51:44;17.10;36.20
3699;DHT22;1865;50.918;7.092;2022-12-29T10:54:33;16.90;36.80
3699;DHT22;1865;50.918;7.092;2022-12-29T10:57:26;16.80;37.00
3699;DHT22;1865;50.918;7.092;2022-12-29T10:59:52;16.80;36.90
3699;DHT22;1865;50.918;7.092;2022-12-29T11:05:32;16.60;37.50
3699;DHT22;1865;50.918;7.092;2022-12-29T11:08:02;16.80;37.50
3699;DHT22;1865;50.918;7.092;2022-12-29T11:13:25;16.80;37.70
3699;DHT22;1865;50.918;7.092;2022-12-29T11:15:51;17.00;37.20
3699;DHT22;1865;50.918;7.092;2022-12-29T11:18:42;16.90;37.30
3699;DHT22;1865;50.918;7.092;2022-12-29T11:21:46;17.20;37.20
3699;DHT22;1865;50.918;7.092;2022-12-29T11:24:21;17.20;36.90
3699;DHT22;1865;50.918;7.092;2022-12-29T11:26:50;17.10;37.00
3699;DHT22;1865;50.918;7.092;2022-12-29T11:31:47;17.20;37.20
3699;DHT22;1865;50.918;7.092;2022-12-29T11:34:24;16.90;37.00
3699;DHT22;1865;50.918;7.092;2022-12-29T11:36:58;16.90;37.00
3699;DHT22;1865;50.918;7.092;2022-12-29T11:39:36;17.10;37.10
3699;DHT22;1865;50.918;7.092;2022-12-29T11:42:05;17.10;36.80
3699;DHT22;1865;50.918;7.092;2022-12-29T11:44:37;16.90;36.60
3699;DHT22;1865;50.918;7.092;2022-12-29T11:47:09;16.90;36.90
3699;DHT22;1865;50.918;7.092;2022-12-29T11:49:37;16.90;36.90
3699;DHT22;1865;50.918;7.092;2022-12-29T11:52:03;16.60;36.20
3699;DHT22;1865;50.918;7.092;2022-12-29T11:54:32;16.50;38.00
3699;DHT22;1865;50.918;7.092;2022-12-29T11:57:12;16.50;37.70
3699;DHT22;1865;50.918;7.092;2022-12-29T12:00:05;16.60;37.30
3699;DHT22;1865;50.918;7.092;2022-12-29T12:10:52;16.40;38.70
3699;DHT22;1865;50.918;7.092;2022-12-29T12:15:57;16.50;38.20
3699;DHT22;1865;50.918;7.092;2022-12-29T12:18:32;16.20;37.80
3699;DHT22;1865;50.918;7.092;2022-12-29T12:21:20;16.20;39.20
3699;DHT22;1865;50.918;7.092;2022-12-29T12:27:02;16.40;38.30
3699;DHT22;1865;50.918;7.092;2022-12-29T12:29:43;16.40;38.20
3699;DHT22;1865;50.918;7.092;2022-12-29T12:32:12;16.50;38.40
3699;DHT22;1865;50.918;7.092;2022-12-29T12:34:42;16.40;37.80
3699;DHT22;1865;50.918;7.092;2022-12-29T12:37:28;16.40;38.30
3699;DHT22;1865;50.918;7.092;2022-12-29T12:43:25;16.40;37.70
3699;DHT22;1865;50.918;7.092;2022-12-29T12:48:55;16.50;38.00
3699;DHT22;1865;50.918;7.092;2022-12-29T12:54:42;16.70;37.90
3699;DHT22;1865;50.918;7.092;2022-12-29T12:57:30;16.70;38.10
3699;DHT22;1865;50.918;7.092;2022-12-29T13:05:17;16.60;38.10
3699;DHT22;1865;50.918;7.092;2022-12-29T13:10:36;16.50;38.80
3699;DHT22;1865;50.918;7.092;2022-12-29T13:13:23;16.70;38.20
3699;DHT22;1865;50.918;7.092;2022-12-29T13:24:13;16.60;38.30
3699;DHT22;1865;50.918;7.092;2022-12-29T13:38:11;16.20;39.20
3699;DHT22;1865;50.918;7.092;2022-12-29T13:40:42;16.10;39.60
3699;DHT22;1865;50.918;7.092;2022-12-29T13:43:09;16.10;39.90
3699;DHT22;1865;50.918;7.092;2022-12-29T13:45:34;16.10;39.60
3699;DHT22;1865;50.918;7.092;2022-12-29T13:50:40;16.00;39.80
3699;DHT22;1865;50.918;7.092;2022-12-29T13:53:33;15.90;40.70
3699;DHT22;1865;50.918;7.092;2022-12-29T13:56:16;15.80;40.00
3699;DHT22;1865;50.918;7.092;2022-12-29T13:58:59;15.70;39.70
3699;DHT22;1865;50.918;7.092;2022-12-29T14:01:53;15.80;39.40
3699;DHT22;1865;50.918;7.092;2022-12-29T14:04:25;15.70;39.40
3699;DHT22;1865;50.918;7.092;2022-12-29T14:07:03;15.60;39.40
3699;DHT22;1865;50.918;7.092;2022-12-29T14:09:43;15.60;39.40
3699;DHT22;1865;50.918;7.092;2022-12-29T14:12:27;15.70;39.60
3699;DHT22;1865;50.918;7.092;2022-12-29T14:15:06;15.70;39.70
3699;DHT22;1865;50.918;7.092;2022-12-29T14:17:40;15.80;40.60
3699;DHT22;1865;50.918;7.092;2022-12-29T14:20:18;15.80;40.60
3699;DHT22;1865;50.918;7.092;2022-12-29T14:22:58;15.80;41.40
3699;DHT22;1865;50.918;7.092;2022-12-29T14:28:37;15.70;41.30
3699;DHT22;1865;50.918;7.092;2022-12-29T14:36:41;14.70;50.00
3699;DHT22;1865;50.918;7.092;2022-12-29T14:42:12;14.30;53.10
3699;DHT22;1865;50.918;7.092;2022-12-29T14:47:38;14.30;53.50
3699;DHT22;1865;50.918;7.092;2022-12-29T14:50:11;14.30;52.30
3699;DHT22;1865;50.918;7.092;2022-12-29T14:57:46;14.30;51.70
3699;DHT22;1865;50.918;7.092;2022-12-29T15:00:24;14.30;51.50
3699;DHT22;1865;50.918;7.092;2022-12-29T15:05:37;14.20;51.10
3699;DHT22;1865;50.918;7.092;2022-12-29T15:08:06;14.10;50.40
3699;DHT22;1865;50.918;7.092;2022-12-29T15:10:42;14.10;50.70
3699;DHT22;1865;50.918;7.092;2022-12-29T15:13:21;14.10;49.70
3699;DHT22;1865;50.918;7.092;2022-12-29T15:15:46;14.20;49.30
3699;DHT22;1865;50.918;7.092;2022-12-29T15:18:18;14.30;50.40
3699;DHT22;1865;50.918;7.092;2022-12-29T15:20:51;14.30;49.00
3699;DHT22;1865;50.918;7.092;2022-12-29T15:23:17;14.40;49.60
3699;DHT22;1865;50.918;7.092;2022-12-29T15:26:03;14.50;48.40
3699;DHT22;1865;50.918;7.092;2022-12-29T15:28:41;14.40;48.50
3699;DHT22;1865;50.918;7.092;2022-12-29T15:31:24;14.30;47.50
3699;DHT22;1865;50.918;7.092;2022-12-29T15:33:53;14.40;47.90
3699;DHT22;1865;50.918;7.092;2022-12-29T15:36:27;14.30;47.70
3699;DHT22;1865;50.918;7.092;2022-12-29T15:38:53;14.30;47.10
3699;DHT22;1865;50.918;7.092;2022-12-29T15:41:45;14.20;47.60
3699;DHT22;1865;50.918;7.092;2022-12-29T15:44:39;14.10;47.80
3699;DHT22;1865;50.918;7.092;2022-12-29T15:47:12;14.20;47.80
3699;DHT22;1865;50.918;7.092;2022-12-29T15:49:41;14.30;47.80
3699;DHT22;1865;50.918;7.092;2022-12-29T15:52:08;14.30;48.30
3699;DHT22;1865;50.918;7.092;2022-12-29T15:54:34;14.30;48.10
3699;DHT22;1865;50.918;7.092;2022-12-29T15:57:00;14.20;48.10
3699;DHT22;1865;50.918;7.092;2022-12-29T15:59:36;14.20;48.50
3699;DHT22;1865;50.918;7.092;2022-12-29T16:02:02;14.10;48.50
3699;DHT22;1865;50.918;7.092;2022-12-29T16:04:30;14.00;48.10
3699;DHT22;1865;50.918;7.092;2022-12-29T16:09:36;13.90;47.80
3699;DHT22;1865;50.918;7.092;2022-12-29T16:12:17;14.00;46.90
3699;DHT22;1865;50.918;7.092;2022-12-29T16:14:47;14.00;46.80
3699;DHT22;1865;50.918;7.092;2022-12-29T16:17:17;14.00;46.80
3699;DHT22;1865;50.918;7.092;2022-12-29T16:19:55;14.10;46.90
3699;DHT22;1865;50.918;7.092;2022-12-29T16:22:39;13.90;45.90
3699;DHT22;1865;50.918;7.092;2022-12-29T16:25:21;13.90;47.30
3699;DHT22;1865;50.918;7.092;2022-12-29T16:27:48;14.00;46.10
3699;DHT22;1865;50.918;7.092;2022-12-29T16:30:22;13.90;45.90
3699;DHT22;1865;50.918;7.092;2022-12-29T16:32:51;14.00;46.30
3699;DHT22;1865;50.918;7.092;2022-12-29T16:35:26;14.00;45.60
3699;DHT22;1865;50.918;7.092;2022-12-29T16:38:18;14.00;45.20
3699;DHT22;1865;50.918;7.092;2022-12-29T16:40:56;14.00;45.50
3699;DHT22;1865;50.918;7.092;2022-12-29T16:43:27;13.90;45.90
3699;DHT22;1865;50.918;7.092;2022-12-29T16:48:34;13.80;45.90
3699;DHT22;1865;50.918;7.092;2022-12-29T16:51:16;13.80;46.20
3699;DHT22;1865;50.918;7.092;2022-12-29T16:53:51;13.80;46.30
3699;DHT22;1865;50.918;7.092;2022-12-29T16:56:19;13.70;46.40
3699;DHT22;1865;50.918;7.092;2022-12-29T16:58:50;13.70;46.60
3699;DHT22;1865;50.918;7.092;2022-12-29T17:01:18;13.70;46.60
3699;DHT22;1865;50.918;7.092;2022-12-29T17:03:57;13.70;46.10
3699;DHT22;1865;50.918;7.092;2022-12-29T17:06:23;13.60;46.30
3699;DHT22;1865;50.918;7.092;2022-12-29T17:08:50;13.60;46.50
3699;DHT22;1865;50.918;7.092;2022-12-29T17:11:26;13.60;46.60
3699;DHT22;1865;50.918;7.092;2022-12-29T17:17:03;13.50;46.60
3699;DHT22;1865;50.918;7.092;2022-12-29T17:19:32;13.50;46.80
3699;DHT22;1865;50.918;7.092;2022-12-29T17:21:59;13.50;47.00
3699;DHT22;1865;50.918;7.092;2022-12-29T17:24:24;13.40;47.40
3699;DHT22;1865;50.918;7.092;2022-12-29T17:26:53;13.50;47.40
3699;DHT22;1865;50.918;7.092;2022-12-29T17:31:58;13.60;47.10
3699;DHT22;1865;50.918;7.092;2022-12-29T17:34:25;13.60;47.20
3699;DHT22;1865;50.918;7.092;2022-12-29T17:36:51;13.70;47.20
3699;DHT22;1865;50.918;7.092;2022-12-29T17:39:16;13.70;47.00
3699;DHT22;1865;50.918;7.092;2022-12-29T17:41:42;13.70;46.90
3699;DHT22;1865;50.918;7.092;2022-12-29T17:44:15;13.70;46.90
3699;DHT22;1865;50.918;7.092;2022-12-29T17:46:40;13.70;46.70
3699;DHT22;1865;50.918;7.092;2022-12-29T17:49:13;13.70;46.60
3699;DHT22;1865;50.918;7.092;2022-12-29T17:51:42;13.70;46.70
3699;DHT22;1865;50.918;7.092;2022-12-29T17:54:25;13.70;46.80
3699;DHT22;1865;50.918;7.092;2022-12-29T17:56:51;13.70;46.80
3699;DHT22;1865;50.918;7.092;2022-12-29T17:59:17;13.60;46.80
3699;DHT22;1865;50.918;7.092;2022-12-29T18:01:45;13.60;46.90
3699;DHT22;1865;50.918;7.092;2022-12-29T18:04:12;13.50;46.80
3699;DHT22;1865;50.918;7.092;2022-12-29T18:06:39;13.50;47.30
3699;DHT22;1865;50.918;7.092;2022-12-29T18:09:05;13.40;47.20
3699;DHT22;1865;50.918;7.092;2022-12-29T18:11:33;13.40;47.40
3699;DHT22;1865;50.918;7.092;2022-12-29T18:13:59;13.40;47.40
3699;DHT22;1865;50.918;7.092;2022-12-29T18:16:24;13.30;48.10
3699;DHT22;1865;50.918;7.092;2022-12-29T18:18:50;13.20;47.50
3699;DHT22;1865;50.918;7.092;2022-12-29T18:21:17;13.20;47.50
3699;DHT22;1865;50.918;7.092;2022-12-29T18:23:44;13.20;47.30
3699;DHT22;1865;50.918;7.092;2022-12-29T18:28:48;13.30;47.40
3699;DHT22;1865;50.918;7.092;2022-12-29T18:31:21;13.20;47.10
3699;DHT22;1865;50.918;7.092;2022-12-29T18:33:48;13.10;47.60
3699;DHT22;1865;50.918;7.092;2022-12-29T18:36:15;13.20;47.40
3699;DHT22;1865;50.918;7.092;2022-12-29T18:38:40;13.20;47.00
3699;DHT22;1865;50.918;7.092;2022-12-29T18:41:23;13.30;47.10
3699;DHT22;1865;50.918;7.092;2022-12-29T18:43:49;13.20;46.50